Terminal Aerodrome Forecast
Issued by NWS

Home | Current Version | Previous Version | Graphics & Text | Print | Product List | Glossary On
Versions: 1 2 3 4 5 6 7 8 9 10 11 12 13 14 15 16 17 18 19 20 21 22 23 24 25 26 27 28 29
000
FTUS43 KICT 231200 AAA
TAFRSL
TAF AMD
KRSL 231242Z 2313/2412 20005KT 1 1/2SM BR SCT002
      TEMPO 2313/2316 1/2SM FG OVC002
     FM231600 VRB05KT 3SM BR SCT002 BKN006
     FM231700 VRB05KT 5SM BR SCT006 BKN009
     FM231900 18006KT P6SM SCT015=

USA.gov is the U.S. government's official web portal to all federal, state and local government web resources and services.